createdAt,value
2018-11-02T00:02:35.162Z,70.63
2018-11-02T00:05:04.602Z,74.90
2018-11-02T00:07:44.332Z,75.17
2018-11-02T00:10:24.844Z,80.10
2018-11-02T00:13:06.962Z,81.07
2018-11-02T00:15:45.562Z,75.57
2018-11-02T00:18:26.252Z,73.43
2018-11-02T00:21:07.442Z,77.80
2018-11-02T00:23:48.067Z,73.00
2018-11-02T00:27:57.452Z,73.77
2018-11-02T00:30:39.145Z,76.73
2018-11-02T00:33:19.560Z,83.67
2018-11-02T00:35:59.675Z,78.90
2018-11-02T00:38:42.340Z,79.00
2018-11-02T00:41:25.832Z,68.73
2018-11-02T00:44:08.181Z,77.03
2018-11-02T00:46:51.886Z,79.53
2018-11-02T00:49:33.052Z,73.40
2018-11-02T00:52:12.720Z,75.07
2018-11-02T00:54:55.982Z,76.27
2018-11-02T00:57:36.426Z,72.07
2018-11-02T01:00:20.993Z,74.90
2018-11-02T01:03:03.146Z,74.70
2018-11-02T01:05:44.615Z,69.03
2018-11-02T01:08:25.691Z,69.03
2018-11-02T01:11:05.276Z,77.57
2018-11-02T01:13:47.155Z,72.37
2018-11-02T01:16:27.624Z,76.47
2018-11-02T01:19:10.363Z,73.37
2018-11-02T01:21:52.513Z,75.17
2018-11-02T01:24:33.722Z,73.43
2018-11-02T01:27:13.756Z,75.77
2018-11-02T01:29:57.710Z,78.13
2018-11-02T01:32:40.109Z,73.40
2018-11-02T01:35:20.601Z,70.43
2018-11-02T01:38:03.737Z,67.60
2018-11-02T01:40:43.893Z,70.63
2018-11-02T01:43:28.666Z,71.57
2018-11-02T01:46:09.481Z,75.97
2018-11-02T01:48:52.308Z,70.03
2018-11-02T01:51:34.064Z,69.13
2018-11-02T01:54:14.121Z,63.80
2018-11-02T01:56:54.118Z,71.83
2018-11-02T01:59:34.147Z,66.60
2018-11-02T02:02:18.972Z,68.67
2018-11-02T02:04:56.467Z,70.87
2018-11-02T02:07:39.323Z,68.37
2018-11-02T02:10:19.520Z,62.57
2018-11-02T02:13:01.209Z,66.17
2018-11-02T02:15:45.565Z,65.60
2018-11-02T02:18:30.319Z,68.60
2018-11-02T02:21:13.507Z,68.73
2018-11-02T02:23:53.713Z,68.70
2018-11-02T02:26:35.784Z,58.97
2018-11-02T02:29:18.701Z,58.53
2018-11-02T02:32:00.062Z,63.57
2018-11-02T02:34:40.039Z,58.87
2018-11-02T02:37:20.724Z,65.67
2018-11-02T02:40:00.689Z,59.83
2018-11-02T02:42:42.583Z,60.20
2018-11-02T02:45:24.147Z,60.50
2018-11-02T02:48:04.880Z,61.43
2018-11-02T02:50:50.003Z,59.93
2018-11-02T02:53:31.445Z,59.17
2018-11-02T02:56:12.158Z,55.83
2018-11-02T02:58:54.971Z,58.53
2018-11-02T03:01:35.331Z,60.00
2018-11-02T03:04:04.728Z,53.57
2018-11-02T03:06:45.040Z,61.23
2018-11-02T03:09:27.562Z,58.03
2018-11-02T03:12:07.581Z,54.00
2018-11-02T03:14:48.019Z,52.37
2018-11-02T03:17:28.660Z,55.43
2018-11-02T03:20:09.980Z,58.50
2018-11-02T03:22:52.012Z,59.07
2018-11-02T03:25:32.481Z,52.43
2018-11-02T03:28:15.395Z,57.50
2018-11-02T03:30:57.264Z,58.47
2018-11-02T03:33:38.753Z,53.57
2018-11-02T03:36:22.595Z,51.33
2018-11-02T03:39:04.837Z,56.23
2018-11-02T03:41:48.184Z,56.43
2018-11-02T03:44:28.791Z,56.60
2018-11-02T03:47:10.809Z,52.90
2018-11-02T03:49:53.375Z,53.57
2018-11-02T03:52:36.061Z,49.67
2018-11-02T03:55:16.680Z,49.63
2018-11-02T03:58:01.943Z,58.87
2018-11-02T04:00:47.509Z,45.23
2018-11-02T04:03:16.718Z,48.57
2018-11-02T04:05:58.893Z,57.10
2018-11-02T04:08:40.386Z,54.83
2018-11-02T04:11:17.632Z,47.67
2018-11-02T04:13:59.996Z,55.93
2018-11-02T04:16:43.140Z,50.10
2018-11-02T04:19:18.884Z,44.83
2018-11-02T04:21:58.272Z,51.17
2018-11-02T04:24:42.227Z,50.13
2018-11-02T04:27:19.393Z,48.33
2018-11-02T04:30:01.144Z,50.27
2018-11-02T04:32:42.202Z,51.83
2018-11-02T04:35:28.388Z,46.57
2018-11-02T04:38:07.653Z,49.83
2018-11-02T04:40:46.868Z,45.93
2018-11-02T04:43:27.588Z,49.93
2018-11-02T04:46:08.999Z,47.47
2018-11-02T04:48:51.443Z,50.00
2018-11-02T04:51:33.357Z,50.17
2018-11-02T04:54:15.372Z,53.17
2018-11-02T04:57:00.587Z,48.97
2018-11-02T04:59:41.278Z,53.43
2018-11-02T05:02:24.767Z,48.70
2018-11-02T05:05:06.887Z,54.93
2018-11-02T05:07:53.024Z,53.87
2018-11-02T05:10:34.064Z,51.07
2018-11-02T05:13:15.133Z,44.70
2018-11-02T05:15:58.595Z,54.73
2018-11-02T05:18:40.068Z,48.43
2018-11-02T05:21:18.664Z,48.27
2018-11-02T05:23:58.918Z,44.77
2018-11-02T05:26:41.188Z,51.20
2018-11-02T05:29:21.882Z,48.53
2018-11-02T05:32:03.667Z,46.73
2018-11-02T05:34:45.455Z,54.47
2018-11-02T05:37:30.222Z,50.50
2018-11-02T05:40:12.239Z,56.80
2018-11-02T05:42:54.452Z,48.30
2018-11-02T05:45:35.941Z,53.93
2018-11-02T05:48:19.581Z,52.37
2018-11-02T05:51:00.971Z,55.03
2018-11-02T05:53:38.270Z,56.07
2018-11-02T05:56:19.206Z,62.93
2018-11-02T05:58:58.420Z,58.50
2018-11-02T06:01:27.271Z,53.50
2018-11-02T06:04:06.703Z,55.30
2018-11-02T06:06:48.720Z,50.40
2018-11-02T06:09:30.737Z,73.40
2018-11-02T06:12:11.032Z,61.87
2018-11-02T06:14:53.491Z,67.00
2018-11-02T06:17:34.732Z,62.10
2018-11-02T06:20:17.770Z,63.60
2018-11-02T06:22:55.687Z,64.73
2018-11-02T06:25:24.531Z,58.63
2018-11-02T06:28:07.700Z,61.83
2018-11-02T06:30:50.971Z,61.10
2018-11-02T06:33:33.878Z,73.93
2018-11-02T06:36:16.342Z,60.90
2018-11-02T06:38:59.034Z,70.57
2018-11-02T06:41:42.389Z,69.40
2018-11-02T06:44:22.961Z,70.50
2018-11-02T06:47:04.451Z,67.27
2018-11-02T06:49:48.949Z,79.80
2018-11-02T06:52:28.297Z,67.73
2018-11-02T06:55:08.348Z,77.13
2018-11-02T06:57:49.815Z,89.90
2018-11-02T07:00:26.969Z,69.00
2018-11-02T07:02:59.711Z,73.83
2018-11-02T07:05:41.843Z,74.00
2018-11-02T07:08:23.859Z,66.97
2018-11-02T07:11:07.869Z,82.30
2018-11-02T07:13:51.382Z,79.03
2018-11-02T07:16:35.562Z,65.20
2018-11-02T07:19:15.642Z,74.43
2018-11-02T07:21:53.979Z,74.37
2018-11-02T07:24:29.194Z,68.40
2018-11-02T07:27:09.636Z,81.33
2018-11-02T07:29:49.150Z,71.17
2018-11-02T07:32:18.589Z,73.40
2018-11-02T07:35:00.232Z,60.77
2018-11-02T07:37:40.372Z,64.60
2018-11-02T07:40:21.789Z,70.80
2018-11-02T07:43:03.019Z,66.43
2018-11-02T07:45:43.058Z,61.23
2018-11-02T07:48:22.962Z,61.33
2018-11-02T07:51:04.388Z,56.77
2018-11-02T07:53:45.823Z,54.37
2018-11-02T07:56:27.309Z,50.90
2018-11-02T07:59:08.100Z,63.73
2018-11-02T08:01:48.849Z,52.23
2018-11-02T08:04:25.033Z,64.97
2018-11-02T08:07:04.036Z,51.43
2018-11-02T08:09:43.462Z,49.90
2018-11-02T08:12:22.679Z,58.90
2018-11-02T08:15:06.543Z,59.90
2018-11-02T08:17:46.172Z,60.97
2018-11-02T08:20:28.424Z,59.17
2018-11-02T08:23:08.515Z,61.20
2018-11-02T08:25:43.030Z,65.87
2018-11-02T08:28:22.335Z,60.80
2018-11-02T08:31:04.101Z,61.87
2018-11-02T08:33:42.928Z,57.23
2018-11-02T08:36:24.452Z,52.13
2018-11-02T08:39:07.112Z,58.50
2018-11-02T08:41:46.527Z,63.07
2018-11-02T08:44:23.696Z,53.17
2018-11-02T08:47:06.237Z,56.73
2018-11-02T08:49:47.143Z,59.10
2018-11-02T08:52:27.867Z,55.47
2018-11-02T08:55:11.303Z,67.10
2018-11-02T08:57:52.826Z,56.20
2018-11-02T09:00:34.284Z,66.77
2018-11-02T09:03:14.424Z,67.67
2018-11-02T09:05:54.691Z,61.20
2018-11-02T09:08:34.383Z,59.17
2018-11-02T09:11:18.373Z,62.07
2018-11-02T09:13:57.088Z,67.90
2018-11-02T09:16:38.280Z,63.40
2018-11-02T09:19:19.355Z,78.00
2018-11-02T09:22:00.185Z,70.80
2018-11-02T09:24:46.301Z,71.57
2018-11-02T09:27:26.628Z,61.27
2018-11-02T09:30:08.507Z,71.10
2018-11-02T09:32:51.322Z,67.30
2018-11-02T09:35:32.487Z,68.43
2018-11-02T09:38:13.751Z,59.67
2018-11-02T09:40:53.964Z,66.50
2018-11-02T09:43:34.787Z,62.33
2018-11-02T09:46:15.723Z,64.40
2018-11-02T09:48:54.989Z,64.87
2018-11-02T09:51:36.724Z,60.77
2018-11-02T09:54:18.776Z,63.03
2018-11-02T09:57:00.562Z,60.43
2018-11-02T09:59:42.553Z,60.97
2018-11-02T10:02:23.269Z,65.47
2018-11-02T10:04:52.583Z,71.80
2018-11-02T10:07:31.127Z,65.80
2018-11-02T10:10:13.540Z,68.00
2018-11-02T10:12:56.430Z,64.60
2018-11-02T10:15:36.449Z,72.07
2018-11-02T10:18:17.539Z,69.73
2018-11-02T10:20:59.204Z,65.07
2018-11-02T10:23:40.354Z,62.90
2018-11-02T10:26:22.511Z,63.37
2018-11-02T10:29:04.650Z,63.87
2018-11-02T10:31:44.992Z,62.00
2018-11-02T10:34:26.482Z,59.43
2018-11-02T10:37:10.370Z,70.03
2018-11-02T10:39:50.238Z,61.17
2018-11-02T10:42:31.620Z,65.70
2018-11-02T10:45:11.695Z,66.13
2018-11-02T10:47:51.317Z,61.40
2018-11-02T10:50:32.236Z,62.00
2018-11-02T10:53:12.312Z,54.27
2018-11-02T10:55:53.587Z,59.83
2018-11-02T10:58:33.772Z,58.90
2018-11-02T11:01:17.483Z,63.37
2018-11-02T11:03:46.995Z,60.33
2018-11-02T11:06:29.500Z,54.07
2018-11-02T11:09:12.560Z,52.23
2018-11-02T11:11:54.367Z,55.13
2018-11-02T11:14:35.148Z,53.50
2018-11-02T11:17:13.126Z,47.83
2018-11-02T11:19:52.457Z,44.97
2018-11-02T11:22:32.891Z,46.17
2018-11-02T11:25:18.277Z,47.77
2018-11-02T11:27:59.079Z,45.83
2018-11-02T11:30:35.742Z,40.13
2018-11-02T11:33:16.001Z,47.13
2018-11-02T11:35:56.114Z,40.70
2018-11-02T11:38:36.629Z,44.00
2018-11-02T11:41:17.845Z,46.30
2018-11-02T11:43:58.711Z,45.17
2018-11-02T11:46:39.802Z,39.53
2018-11-02T11:49:21.492Z,40.87
2018-11-02T11:51:59.549Z,39.43
2018-11-02T11:54:43.902Z,41.53
2018-11-02T11:57:24.622Z,40.90
2018-11-02T12:00:03.232Z,44.63
2018-11-02T12:02:45.398Z,42.10
2018-11-02T12:05:29.809Z,44.00
2018-11-02T12:08:12.804Z,44.10
2018-11-02T12:10:53.215Z,45.53
2018-11-02T12:13:34.030Z,46.73
2018-11-02T12:16:16.673Z,41.73
2018-11-02T12:18:55.542Z,37.57
2018-11-02T12:21:40.651Z,38.07
2018-11-02T12:24:24.294Z,45.20
2018-11-02T12:27:06.166Z,39.97
2018-11-02T12:29:47.751Z,37.33
2018-11-02T12:32:34.693Z,40.27
2018-11-02T12:35:19.932Z,36.53
2018-11-02T12:38:00.699Z,38.03
2018-11-02T12:40:42.537Z,36.47
2018-11-02T12:43:24.587Z,37.43
2018-11-02T12:46:06.518Z,35.83
2018-11-02T12:48:50.341Z,36.40
2018-11-02T12:51:30.258Z,36.27
2018-11-02T12:54:14.092Z,37.57
2018-11-02T12:56:57.480Z,38.50
2018-11-02T12:59:39.721Z,31.23
2018-11-02T13:02:19.887Z,38.87
2018-11-02T13:04:59.304Z,38.67
2018-11-02T13:07:40.744Z,31.80
2018-11-02T13:10:28.185Z,35.67
2018-11-02T13:13:10.775Z,33.57
2018-11-02T13:15:53.244Z,31.07
2018-11-02T13:18:34.546Z,32.53
2018-11-02T13:21:22.408Z,30.07
2018-11-02T13:24:00.642Z,30.23
2018-11-02T13:26:41.653Z,32.33
2018-11-02T13:29:20.217Z,37.27
2018-11-02T13:32:02.735Z,32.20
2018-11-02T13:34:43.900Z,31.00
2018-11-02T13:37:23.472Z,29.83
2018-11-02T13:40:06.055Z,33.13
2018-11-02T13:42:47.769Z,30.77
2018-11-02T13:45:29.086Z,30.70
2018-11-02T13:48:12.132Z,28.73
2018-11-02T13:50:54.092Z,33.03
2018-11-02T13:53:35.637Z,32.60
2018-11-02T13:56:16.049Z,31.73
2018-11-02T13:58:59.090Z,35.53
2018-11-02T14:01:40.031Z,31.43
2018-11-02T14:04:09.906Z,30.53
2018-11-02T14:06:43.843Z,32.53
2018-11-02T14:09:27.104Z,32.47
2018-11-02T14:12:06.798Z,32.80
2018-11-02T14:14:38.042Z,30.87
2018-11-02T14:17:13.318Z,29.77
2018-11-02T14:19:56.189Z,29.13
2018-11-02T14:22:28.368Z,32.00
2018-11-02T14:25:00.088Z,33.60
2018-11-02T14:27:39.288Z,32.20
2018-11-02T14:30:21.603Z,35.30
2018-11-02T14:33:00.944Z,37.03
2018-11-02T14:35:38.009Z,31.10
2018-11-02T14:38:15.870Z,36.60
2018-11-02T14:40:55.673Z,36.23
2018-11-02T14:43:37.361Z,37.47
2018-11-02T14:46:16.572Z,35.83
2018-11-02T14:48:59.068Z,37.60
2018-11-02T14:51:40.254Z,41.03
2018-11-02T14:54:18.073Z,36.87
2018-11-02T14:56:59.535Z,40.87
2018-11-02T14:59:37.600Z,38.43
2018-11-02T15:02:16.251Z,35.90
2018-11-02T15:04:45.974Z,38.73
2018-11-02T15:07:24.803Z,36.90
2018-11-02T15:10:08.440Z,40.47
2018-11-02T15:12:50.876Z,36.67
2018-11-02T15:15:31.012Z,43.93
2018-11-02T15:18:12.053Z,40.30
2018-11-02T15:20:54.610Z,44.27
2018-11-02T15:23:29.503Z,39.70
2018-11-02T15:26:03.621Z,35.30
2018-11-02T15:28:35.113Z,36.93
2018-11-02T15:31:13.763Z,34.70
2018-11-02T15:33:53.530Z,39.33
2018-11-02T15:36:24.342Z,37.17
2018-11-02T15:39:02.733Z,40.67
2018-11-02T15:41:40.179Z,39.00
2018-11-02T15:44:18.847Z,37.13
2018-11-02T15:46:56.862Z,42.47
2018-11-02T15:49:35.827Z,39.47
2018-11-02T15:52:14.942Z,39.43
2018-11-02T15:54:47.811Z,36.17
2018-11-02T15:57:30.232Z,41.40
2018-11-02T16:00:08.623Z,37.40
2018-11-02T16:02:47.428Z,44.07
2018-11-02T16:05:27.084Z,36.87
2018-11-02T16:08:01.336Z,42.90
2018-11-02T16:10:38.841Z,37.93
2018-11-02T16:13:15.765Z,41.70
2018-11-02T16:15:53.481Z,40.87
2018-11-02T16:18:31.975Z,40.37
2018-11-02T16:21:13.693Z,44.20
2018-11-02T16:23:56.112Z,39.00
2018-11-02T16:26:32.688Z,43.03
2018-11-02T16:29:11.722Z,38.13
2018-11-02T16:31:51.640Z,39.87
2018-11-02T16:34:22.733Z,34.17
2018-11-02T16:37:01.743Z,38.90
2018-11-02T16:39:38.508Z,40.67
2018-11-02T16:42:12.965Z,32.87
2018-11-02T16:44:47.830Z,35.93
2018-11-02T16:47:28.709Z,33.77
2018-11-02T16:50:10.226Z,36.17
2018-11-02T16:52:49.387Z,31.53
2018-11-02T16:55:27.534Z,28.50
2018-11-02T16:58:06.870Z,26.47
2018-11-02T17:00:45.656Z,29.10
2018-11-02T17:03:15.082Z,27.50
2018-11-02T17:05:52.978Z,23.27
2018-11-02T17:08:30.810Z,25.13
2018-11-02T17:11:06.513Z,23.77
2018-11-02T17:13:45.120Z,23.53
2018-11-02T17:16:22.311Z,20.90
2018-11-02T17:19:01.453Z,21.60
2018-11-02T17:21:41.486Z,24.20
2018-11-02T17:24:19.109Z,20.33
2018-11-02T17:26:57.456Z,23.30
2018-11-02T17:29:35.741Z,22.03
2018-11-02T17:39:04.480Z,21.97
2018-11-02T17:41:42.140Z,17.90
2018-11-02T17:44:18.864Z,23.57
2018-11-02T17:46:52.993Z,18.00
2018-11-02T17:49:30.228Z,18.17
2018-11-02T17:52:07.517Z,18.23
2018-11-02T17:54:45.450Z,21.67
2018-11-02T17:57:23.141Z,20.83
2018-11-02T18:00:01.557Z,19.13
2018-11-02T18:02:36.649Z,19.13
2018-11-02T18:05:13.761Z,17.23
2018-11-02T18:07:48.410Z,19.13
2018-11-02T18:10:25.669Z,20.20
2018-11-02T18:13:09.425Z,18.20
2018-11-02T18:15:51.251Z,15.43
2018-11-02T18:18:31.050Z,17.63
2018-11-02T18:21:10.408Z,18.43
2018-11-02T18:23:50.041Z,19.53
2018-11-02T18:26:28.517Z,16.80
2018-11-02T18:29:03.219Z,17.20
2018-11-02T18:31:43.194Z,19.50
2018-11-02T18:34:14.303Z,15.30
2018-11-02T18:36:51.914Z,15.37
2018-11-02T18:39:29.022Z,13.90
2018-11-02T18:42:07.217Z,14.83
2018-11-02T18:44:42.389Z,16.27
2018-11-02T18:47:21.603Z,13.23
2018-11-02T18:49:55.580Z,14.93
2018-11-02T18:52:33.493Z,16.83
2018-11-02T18:55:12.989Z,13.43
2018-11-02T18:57:46.127Z,15.90
2018-11-02T19:00:23.044Z,15.90
2018-11-02T19:02:59.261Z,15.50
2018-11-02T19:05:34.612Z,13.23
2018-11-02T19:08:11.193Z,17.90
2018-11-02T19:10:49.561Z,16.47
2018-11-02T19:13:25.753Z,18.43
2018-11-02T19:16:03.940Z,16.50
2018-11-02T19:18:37.501Z,18.27
2018-11-02T19:21:11.414Z,15.27
2018-11-02T19:23:40.403Z,15.37
2018-11-02T19:26:14.541Z,17.17
2018-11-02T19:28:50.666Z,17.53
2018-11-02T19:31:27.734Z,15.37
2018-11-02T19:33:59.395Z,15.90
2018-11-02T19:36:36.573Z,18.37
2018-11-02T19:39:13.777Z,16.13
2018-11-02T19:41:48.332Z,14.10
2018-11-02T19:44:23.350Z,20.00
2018-11-02T19:46:57.997Z,15.63
2018-11-02T19:49:32.228Z,19.37
2018-11-02T19:52:08.363Z,16.73
2018-11-02T19:54:44.153Z,15.60
2018-11-02T19:57:18.707Z,16.93
2018-11-02T19:59:51.792Z,16.93
2018-11-02T20:02:27.475Z,16.43
2018-11-02T20:05:08.375Z,15.97
2018-11-02T20:07:48.008Z,17.00
2018-11-02T20:10:27.029Z,17.60
2018-11-02T20:13:08.408Z,19.33
2018-11-02T20:15:41.493Z,17.93
2018-11-02T20:18:17.913Z,18.60
2018-11-02T20:20:55.617Z,17.87
2018-11-02T20:23:35.354Z,17.00
2018-11-02T20:26:14.721Z,22.83
2018-11-02T20:28:55.815Z,21.47
2018-11-02T20:31:36.460Z,20.03
2018-11-02T20:34:18.038Z,17.70
2018-11-02T20:36:58.069Z,18.83
2018-11-02T20:39:36.529Z,19.20
2018-11-02T20:42:12.487Z,25.53
2018-11-02T20:44:46.701Z,20.77
2018-11-02T20:47:21.052Z,19.60
2018-11-02T20:49:57.779Z,22.10
2018-11-02T20:52:35.360Z,22.60
2018-11-02T20:55:09.290Z,20.20
2018-11-02T20:57:45.151Z,19.47
2018-11-02T21:00:21.034Z,20.30
2018-11-02T21:02:50.791Z,19.87
2018-11-02T21:05:26.852Z,19.13
2018-11-02T21:08:06.267Z,17.87
2018-11-02T21:10:39.078Z,20.63
2018-11-02T21:13:14.147Z,17.90
2018-11-02T21:15:46.533Z,17.93
2018-11-02T21:18:16.758Z,20.13
2018-11-02T21:20:51.099Z,17.50
2018-11-02T21:23:27.651Z,19.13
2018-11-02T21:26:01.975Z,16.07
2018-11-02T21:28:31.311Z,17.27
2018-11-02T21:31:05.591Z,16.97
2018-11-02T21:33:44.752Z,16.13
2018-11-02T21:36:25.947Z,16.87
2018-11-02T21:39:07.136Z,15.10
2018-11-02T21:41:45.777Z,17.83
2018-11-02T21:44:23.335Z,19.33
2018-11-02T21:47:01.265Z,17.37
2018-11-02T21:49:38.165Z,15.30
2018-11-02T21:52:14.847Z,18.50
2018-11-02T21:54:56.031Z,14.97
2018-11-02T21:57:30.379Z,14.07
2018-11-02T22:00:08.011Z,14.73
2018-11-02T22:02:46.830Z,10.97
2018-11-02T22:05:25.589Z,14.60
2018-11-02T22:07:58.344Z,12.70
2018-11-02T22:10:34.238Z,12.43
2018-11-02T22:13:12.091Z,14.40
2018-11-02T22:15:53.889Z,15.63
2018-11-02T22:18:33.338Z,13.80
2018-11-02T22:21:14.488Z,13.83
2018-11-02T22:23:48.832Z,12.73
2018-11-02T22:26:28.747Z,13.60
2018-11-02T22:29:10.410Z,13.67
2018-11-02T22:31:52.137Z,13.10
2018-11-02T22:34:34.041Z,11.30
2018-11-02T22:37:17.205Z,13.23
2018-11-02T22:39:57.623Z,9.37
2018-11-02T22:42:28.145Z,9.77
2018-11-02T22:45:09.128Z,12.50
2018-11-02T22:47:39.198Z,10.87
2018-11-02T22:50:21.813Z,10.70
2018-11-02T22:53:03.750Z,10.47
2018-11-02T22:55:45.466Z,12.47
2018-11-02T22:58:26.213Z,9.87
2018-11-02T23:01:13.420Z,9.23
2018-11-02T23:03:43.059Z,11.20
2018-11-02T23:06:26.079Z,11.87
2018-11-02T23:09:10.747Z,9.07
2018-11-02T23:11:50.935Z,11.40
2018-11-02T23:14:30.526Z,10.90
2018-11-02T23:17:11.605Z,10.77
2018-11-02T23:19:51.385Z,10.63
2018-11-02T23:22:34.223Z,9.90
2018-11-02T23:25:17.612Z,10.03
2018-11-02T23:28:01.828Z,9.10
2018-11-02T23:30:42.242Z,9.07
2018-11-02T23:33:22.260Z,13.23
2018-11-02T23:36:05.609Z,13.17
2018-11-02T23:38:46.066Z,9.50
2018-11-02T23:41:31.163Z,10.77
2018-11-02T23:44:10.380Z,9.37
2018-11-02T23:46:52.284Z,12.30
2018-11-02T23:49:32.286Z,10.43
2018-11-02T23:52:12.281Z,9.60
2018-11-02T23:57:46.772Z,9.30
